createdAt,value
2022-11-05T00:01:58.007Z,101726.34
2022-11-05T00:04:42.947Z,101744.31
2022-11-05T00:07:35.265Z,101737.97
2022-11-05T00:10:32.764Z,101747.50
2022-11-05T00:13:18.184Z,101753.59
2022-11-05T00:16:03.959Z,101760.06
2022-11-05T00:18:31.111Z,101768.78
2022-11-05T00:20:57.943Z,101764.63
2022-11-05T00:23:43.013Z,101763.94
2022-11-05T00:26:11.531Z,101768.22
2022-11-05T00:28:40.806Z,101769.56
2022-11-05T00:31:10.125Z,101773.44
2022-11-05T00:33:41.731Z,101775.63
2022-11-05T00:36:09.960Z,101775.34
2022-11-05T00:38:36.906Z,101775.59
2022-11-05T00:41:03.604Z,101774.19
2022-11-05T00:43:48.560Z,101775.25
2022-11-05T00:46:15.041Z,101774.47
2022-11-05T00:49:00.256Z,101783.53
2022-11-05T00:51:26.737Z,101785.84
2022-11-05T00:53:53.302Z,101779.22
2022-11-05T00:56:19.831Z,101782.53
2022-11-05T00:58:46.315Z,101773.97
2022-11-05T01:01:12.939Z,101776.06
2022-11-05T01:03:40.232Z,101779.72
2022-11-05T01:06:13.361Z,101780.00
2022-11-05T01:08:41.756Z,101774.91
2022-11-05T01:11:32.996Z,101773.34
2022-11-05T01:14:10.863Z,101784.50
2022-11-05T01:16:38.784Z,101776.19
2022-11-05T01:19:07.576Z,101778.03
2022-11-05T01:21:34.356Z,101771.25
2022-11-05T01:24:03.125Z,101779.31
2022-11-05T01:26:30.236Z,101773.66
2022-11-05T01:29:00.499Z,101772.28
2022-11-05T01:31:28.738Z,101769.72
2022-11-05T01:33:55.253Z,101776.38
2022-11-05T01:36:21.763Z,101776.50
2022-11-05T01:38:48.329Z,101772.59
2022-11-05T01:41:14.892Z,101784.72
2022-11-05T01:44:27.400Z,101785.84
2022-11-05T01:46:54.096Z,101786.03
2022-11-05T01:49:33.467Z,101799.25
2022-11-05T01:52:03.606Z,101798.41
2022-11-05T01:54:33.145Z,101802.44
2022-11-05T01:57:03.856Z,101800.72
2022-11-05T01:59:34.819Z,101808.88
2022-11-05T02:02:02.958Z,101809.38
2022-11-05T02:04:33.054Z,101800.34
2022-11-05T02:07:00.011Z,101800.41
2022-11-05T02:09:53.419Z,101807.06
2022-11-05T02:12:21.619Z,101789.47
2022-11-05T02:14:48.096Z,101791.53
2022-11-05T02:17:29.639Z,101803.47
2022-11-05T02:20:33.582Z,101796.66
2022-11-05T02:23:29.110Z,101802.34
2022-11-05T02:26:13.896Z,101797.34
2022-11-05T02:29:16.055Z,101789.88
2022-11-05T02:32:07.429Z,101789.59
2022-11-05T02:34:51.183Z,101801.09
2022-11-05T02:37:39.516Z,101801.09
2022-11-05T02:40:08.938Z,101793.50
2022-11-05T02:42:48.963Z,101792.78
2022-11-05T02:45:43.237Z,101787.41
2022-11-05T02:48:18.683Z,101786.97
2022-11-05T02:51:22.265Z,101783.38
2022-11-05T02:54:26.099Z,101786.81
2022-11-05T02:56:55.099Z,101787.25
2022-11-05T02:59:21.581Z,101796.94
2022-11-05T03:01:48.882Z,101794.59
2022-11-05T03:04:19.343Z,101794.75
2022-11-05T03:07:13.210Z,101798.06
2022-11-05T03:09:57.775Z,101792.38
2022-11-05T03:12:53.552Z,101788.66
2022-11-05T03:15:45.997Z,101792.22
2022-11-05T03:18:25.420Z,101785.28
2022-11-05T03:21:03.132Z,101783.59
2022-11-05T03:23:40.109Z,101784.84
2022-11-05T03:26:35.822Z,101776.13
2022-11-05T03:29:09.062Z,101778.50
2022-11-05T03:31:37.962Z,101787.50
2022-11-05T03:34:07.371Z,101784.34
2022-11-05T03:36:41.218Z,101781.28
2022-11-05T03:39:13.385Z,101789.88
2022-11-05T03:41:43.427Z,101790.97
2022-11-05T03:44:13.224Z,101784.88
2022-11-05T03:46:48.021Z,101793.59
2022-11-05T03:49:27.794Z,101800.94
2022-11-05T03:52:26.188Z,101790.84
2022-11-05T03:54:53.434Z,101790.28
2022-11-05T03:57:31.410Z,101800.41
2022-11-05T03:59:58.008Z,101802.22
2022-11-05T04:02:26.681Z,101798.31
2022-11-05T04:04:55.015Z,101803.16
2022-11-05T04:07:40.060Z,101802.56
2022-11-05T04:10:25.545Z,101808.88
2022-11-05T04:13:11.093Z,101816.63
2022-11-05T04:15:56.440Z,101812.16
2022-11-05T04:18:23.080Z,101814.78
2022-11-05T04:21:24.759Z,101809.81
2022-11-05T04:24:09.367Z,101799.84
2022-11-05T04:26:41.683Z,101811.31
2022-11-05T04:29:27.121Z,101816.16
2022-11-05T04:31:53.720Z,101818.22
2022-11-05T04:34:22.121Z,101816.81
2022-11-05T04:36:50.632Z,101818.59
2022-11-05T04:39:18.045Z,101822.34
2022-11-05T04:41:48.038Z,101826.75
2022-11-05T04:44:15.634Z,101833.47
2022-11-05T04:46:42.587Z,101835.81
2022-11-05T04:49:09.057Z,101836.47
2022-11-05T04:51:35.583Z,101829.94
2022-11-05T04:54:02.492Z,101821.50
2022-11-05T04:56:29.022Z,101818.41
2022-11-05T04:58:55.658Z,101824.38
2022-11-05T05:01:23.634Z,101835.47
2022-11-05T05:03:51.451Z,101831.84
2022-11-05T05:06:19.015Z,101829.38
2022-11-05T05:08:47.558Z,101835.16
2022-11-05T05:11:16.678Z,101830.59
2022-11-05T05:13:43.465Z,101818.69
2022-11-05T05:16:18.752Z,101820.25
2022-11-05T05:18:46.593Z,101822.19
2022-11-05T05:21:32.525Z,101818.50
2022-11-05T05:23:59.220Z,101814.00
2022-11-05T05:26:26.078Z,101808.19
2022-11-05T05:28:53.797Z,101818.22
2022-11-05T05:31:21.991Z,101820.59
2022-11-05T05:33:48.576Z,101830.31
2022-11-05T05:36:15.148Z,101830.19
2022-11-05T05:38:41.643Z,101824.38
2022-11-05T05:41:08.120Z,101830.97
2022-11-05T05:43:34.661Z,101823.38
2022-11-05T05:46:04.966Z,101830.69
2022-11-05T05:48:32.065Z,101823.22
2022-11-05T05:51:07.239Z,101827.69
2022-11-05T05:53:34.215Z,101824.53
2022-11-05T05:56:01.090Z,101824.94
2022-11-05T05:58:32.653Z,101832.69
2022-11-05T06:01:05.018Z,101834.91
2022-11-05T06:03:31.594Z,101823.31
2022-11-05T06:06:06.075Z,101834.34
2022-11-05T06:08:33.214Z,101831.53
2022-11-05T06:10:59.851Z,101838.59
2022-11-05T06:13:27.032Z,101837.78
2022-11-05T06:15:53.724Z,101844.28
2022-11-05T06:18:20.261Z,101842.75
2022-11-05T06:20:46.828Z,101840.13
2022-11-05T06:23:13.563Z,101850.34
2022-11-05T06:25:41.528Z,101844.41
2022-11-05T06:28:08.215Z,101847.03
2022-11-05T06:30:34.707Z,101848.84
2022-11-05T06:33:05.340Z,101855.75
2022-11-05T06:35:32.577Z,101863.38
2022-11-05T06:38:01.313Z,101869.88
2022-11-05T06:40:29.077Z,101865.00
2022-11-05T06:42:55.591Z,101863.81
2022-11-05T06:45:22.258Z,101866.16
2022-11-05T06:47:48.875Z,101867.28
2022-11-05T06:50:15.504Z,101866.00
2022-11-05T06:52:42.019Z,101866.28
2022-11-05T06:55:09.227Z,101871.41
2022-11-05T06:57:38.785Z,101873.88
2022-11-05T07:00:07.980Z,101872.09
2022-11-05T07:02:35.365Z,101875.56
2022-11-05T07:05:01.890Z,101872.53
2022-11-05T07:07:28.433Z,101877.25
2022-11-05T07:09:55.032Z,101870.63
2022-11-05T07:12:21.548Z,101872.75
2022-11-05T07:14:48.038Z,101877.88
2022-11-05T07:17:17.687Z,101875.00
2022-11-05T07:19:44.220Z,101880.94
2022-11-05T07:22:10.743Z,101896.56
2022-11-05T07:24:37.218Z,101895.91
2022-11-05T07:27:03.836Z,101889.41
2022-11-05T07:29:30.324Z,101896.63
2022-11-05T07:31:56.810Z,101887.94
2022-11-05T07:34:23.406Z,101887.22
2022-11-05T07:36:49.898Z,101883.63
2022-11-05T07:39:16.439Z,101882.81
2022-11-05T07:41:42.968Z,101890.00
2022-11-05T07:44:12.123Z,101882.38
2022-11-05T07:46:38.629Z,101888.06
2022-11-05T07:49:05.280Z,101892.09
2022-11-05T07:51:31.800Z,101895.28
2022-11-05T07:53:58.477Z,101897.22
2022-11-05T07:56:25.061Z,101890.69
2022-11-05T07:58:51.573Z,101891.25
2022-11-05T08:01:18.494Z,101895.53
2022-11-05T08:03:45.179Z,101894.66
2022-11-05T08:06:11.811Z,101892.59
2022-11-05T08:08:38.491Z,101892.59
2022-11-05T08:11:06.737Z,101893.41
2022-11-05T08:13:34.072Z,101887.59
2022-11-05T08:16:02.019Z,101889.97
2022-11-05T08:18:33.193Z,101890.13
2022-11-05T08:21:01.844Z,101881.94
2022-11-05T08:23:29.413Z,101895.81
2022-11-05T08:25:57.167Z,101890.25
2022-11-05T08:28:25.420Z,101887.06
2022-11-05T08:30:54.502Z,101895.63
2022-11-05T08:33:22.601Z,101892.41
2022-11-05T08:35:50.111Z,101889.81
2022-11-05T08:38:18.873Z,101894.72
2022-11-05T08:40:53.691Z,101892.16
2022-11-05T08:43:20.211Z,101900.94
2022-11-05T08:45:49.005Z,101898.97
2022-11-05T08:48:17.386Z,101902.53
2022-11-05T08:50:45.836Z,101892.97
2022-11-05T08:53:13.172Z,101893.91
2022-11-05T08:55:40.312Z,101887.22
2022-11-05T08:58:20.051Z,101883.50
2022-11-05T09:00:48.774Z,101893.06
2022-11-05T09:03:16.294Z,101891.69
2022-11-05T09:05:43.248Z,101886.84
2022-11-05T09:08:27.955Z,101896.09
2022-11-05T09:10:54.569Z,101900.25
2022-11-05T09:13:21.455Z,101899.34
2022-11-05T09:15:50.933Z,101911.44
2022-11-05T09:18:18.948Z,101906.22
2022-11-05T09:20:45.508Z,101891.22
2022-11-05T09:23:14.883Z,101898.06
2022-11-05T09:25:41.721Z,101900.09
2022-11-05T09:28:12.276Z,101891.34
2022-11-05T09:30:48.614Z,101899.25
2022-11-05T09:33:16.924Z,101900.25
2022-11-05T09:35:43.429Z,101904.84
2022-11-05T09:38:09.964Z,101905.31
2022-11-05T09:40:42.979Z,101897.91
2022-11-05T09:43:18.039Z,101899.13
2022-11-05T09:45:46.752Z,101904.34
2022-11-05T09:48:17.639Z,101895.25
2022-11-05T09:50:46.080Z,101899.19
2022-11-05T09:53:16.391Z,101903.25
2022-11-05T09:55:46.164Z,101908.97
2022-11-05T09:58:17.667Z,101910.06
2022-11-05T10:00:48.621Z,101899.06
2022-11-05T10:03:21.587Z,101895.13
2022-11-05T10:05:49.957Z,101896.97
2022-11-05T10:08:28.937Z,101900.66
2022-11-05T10:11:01.460Z,101902.16
2022-11-05T10:13:48.693Z,101899.16
2022-11-05T10:16:36.007Z,101891.06
2022-11-05T10:19:13.135Z,101894.03
2022-11-05T10:22:07.669Z,101895.13
2022-11-05T10:24:28.132Z,101888.56
2022-11-05T10:26:55.741Z,101889.50
2022-11-05T10:29:29.674Z,101892.00
2022-11-05T10:32:03.142Z,101889.56
2022-11-05T10:34:34.402Z,101896.19
2022-11-05T10:37:01.364Z,101891.91
2022-11-05T10:39:30.682Z,101894.06
2022-11-05T10:42:24.492Z,101888.34
2022-11-05T10:45:29.129Z,101870.75
2022-11-05T10:48:04.356Z,101863.25
2022-11-05T10:50:31.118Z,101860.09
2022-11-05T10:52:59.646Z,101855.97
2022-11-05T10:55:32.851Z,101851.84
2022-11-05T10:58:10.050Z,101849.31
2022-11-05T11:00:37.032Z,101852.06
2022-11-05T11:03:06.077Z,101846.94
2022-11-05T11:05:39.202Z,101856.75
2022-11-05T11:08:13.890Z,101852.66
2022-11-05T11:10:57.801Z,101858.16
2022-11-05T11:13:24.279Z,101852.34
2022-11-05T11:15:51.241Z,101846.53
2022-11-05T11:18:41.926Z,101848.53
2022-11-05T11:21:17.605Z,101850.69
2022-11-05T11:23:54.878Z,101845.56
2022-11-05T11:26:23.633Z,101838.78
2022-11-05T11:28:57.843Z,101838.44
2022-11-05T11:31:27.200Z,101836.75
2022-11-05T11:34:02.380Z,101833.13
2022-11-05T11:36:35.759Z,101836.94
2022-11-05T11:39:04.680Z,101842.91
2022-11-05T11:41:36.844Z,101846.69
2022-11-05T11:44:11.352Z,101839.44
2022-11-05T11:46:38.397Z,101833.28
2022-11-05T11:49:06.662Z,101830.66
2022-11-05T11:51:40.377Z,101831.81
2022-11-05T11:54:19.838Z,101846.38
2022-11-05T11:56:48.496Z,101839.63
2022-11-05T11:59:47.197Z,101831.84
2022-11-05T12:02:35.221Z,101836.78
2022-11-05T12:05:39.998Z,101833.97
2022-11-05T12:08:45.543Z,101836.97
2022-11-05T12:11:27.998Z,101841.41
2022-11-05T12:14:13.266Z,101832.81
2022-11-05T12:16:45.837Z,101824.66
2022-11-05T12:19:24.714Z,101807.50
2022-11-05T12:22:27.379Z,101811.06
2022-11-05T12:25:16.390Z,101811.25
2022-11-05T12:28:01.281Z,101805.16
2022-11-05T12:30:37.393Z,101805.88
2022-11-05T12:33:20.254Z,101804.72
2022-11-05T12:36:08.569Z,101800.44
2022-11-05T12:39:00.355Z,101796.38
2022-11-05T12:41:33.303Z,101786.06
2022-11-05T12:44:29.199Z,101787.41
2022-11-05T12:47:07.852Z,101784.91
2022-11-05T12:50:00.294Z,101778.16
2022-11-05T12:52:44.329Z,101779.31
2022-11-05T12:55:16.573Z,101790.56
2022-11-05T12:57:47.686Z,101779.66
2022-11-05T13:00:20.780Z,101773.34
2022-11-05T13:03:24.893Z,101769.53
2022-11-05T13:06:14.161Z,101772.34
2022-11-05T13:09:03.203Z,101767.22
2022-11-05T13:11:47.176Z,101765.72
2022-11-05T13:14:29.029Z,101770.03
2022-11-05T13:17:04.277Z,101754.16
2022-11-05T13:19:39.803Z,101753.66
2022-11-05T13:22:35.689Z,101754.94
2022-11-05T13:25:15.135Z,101749.28
2022-11-05T13:27:56.653Z,101743.19
2022-11-05T13:30:26.093Z,101744.63
2022-11-05T13:33:02.003Z,101737.88
2022-11-05T13:36:25.880Z,101744.81
2022-11-05T13:39:16.355Z,101747.47
2022-11-05T13:42:01.375Z,101749.09
2022-11-05T13:44:46.654Z,101742.34
2022-11-05T13:47:31.861Z,101737.88
2022-11-05T13:50:29.048Z,101745.16
2022-11-05T13:53:14.303Z,101743.50
2022-11-05T13:55:59.020Z,101742.50
2022-11-05T13:58:47.414Z,101743.19
2022-11-05T14:01:44.564Z,101743.34
2022-11-05T14:04:23.869Z,101745.34
2022-11-05T14:06:50.579Z,101732.75
2022-11-05T14:09:24.296Z,101735.94
2022-11-05T14:11:56.878Z,101737.75
2022-11-05T14:14:27.582Z,101735.28
2022-11-05T14:17:14.635Z,101732.78
2022-11-05T14:20:02.374Z,101738.75
2022-11-05T14:22:38.346Z,101741.91
2022-11-05T14:25:19.890Z,101739.06
2022-11-05T14:27:52.550Z,101737.44
2022-11-05T14:30:47.400Z,101731.78
2022-11-05T14:33:26.125Z,101736.41
2022-11-05T14:36:19.692Z,101738.75
2022-11-05T14:38:51.572Z,101729.66
2022-11-05T14:41:20.007Z,101728.34
2022-11-05T14:44:07.424Z,101731.19
2022-11-05T14:46:49.622Z,101741.16
2022-11-05T14:49:30.283Z,101732.72
2022-11-05T14:51:59.967Z,101732.91
2022-11-05T14:54:32.232Z,101729.41
2022-11-05T14:57:00.592Z,101726.09
2022-11-05T14:59:28.353Z,101735.22
2022-11-05T15:01:58.617Z,101732.91
2022-11-05T15:04:26.909Z,101724.47
2022-11-05T15:07:02.397Z,101728.94
2022-11-05T15:09:53.646Z,101729.28
2022-11-05T15:12:25.714Z,101734.09
2022-11-05T15:14:57.739Z,101743.19
2022-11-05T15:18:11.417Z,101717.69
2022-11-05T15:20:42.814Z,101726.97
2022-11-05T15:23:16.933Z,101724.19
2022-11-05T15:26:12.014Z,101735.94
2022-11-05T15:28:47.938Z,101730.66
2022-11-05T15:31:14.431Z,101737.94
2022-11-05T15:33:42.344Z,101734.28
2022-11-05T15:36:23.460Z,101735.13
2022-11-05T15:39:15.271Z,101727.53
2022-11-05T15:41:36.703Z,101719.75
2022-11-05T15:44:03.293Z,101727.69
2022-11-05T15:46:30.186Z,101718.91
2022-11-05T15:49:03.858Z,101721.72
2022-11-05T15:51:30.607Z,101717.25
2022-11-05T15:56:58.030Z,101716.94
2022-11-05T15:59:27.149Z,101709.63
2022-11-05T16:02:13.666Z,101713.47
2022-11-05T16:04:40.537Z,101705.03
2022-11-05T16:07:11.006Z,101713.97
2022-11-05T16:09:41.148Z,101702.38
2022-11-05T16:12:18.164Z,101703.69
2022-11-05T16:14:58.629Z,101701.19
2022-11-05T16:17:27.726Z,101697.75
2022-11-05T16:19:54.714Z,101700.56
2022-11-05T16:22:21.961Z,101695.09
2022-11-05T16:24:48.829Z,101697.75
2022-11-05T16:27:21.210Z,101693.91
2022-11-05T16:30:06.446Z,101692.44
2022-11-05T16:32:32.949Z,101677.34
2022-11-05T16:35:02.645Z,101670.91
2022-11-05T16:37:36.616Z,101657.66
2022-11-05T16:40:03.887Z,101663.63
2022-11-05T16:42:33.289Z,101654.19
2022-11-05T16:44:59.843Z,101654.34
2022-11-05T16:47:26.578Z,101659.00
2022-11-05T16:49:53.092Z,101651.91
2022-11-05T16:52:19.587Z,101647.44
2022-11-05T16:54:47.168Z,101649.44
2022-11-05T16:57:24.268Z,101644.31
2022-11-05T16:59:50.978Z,101643.13
2022-11-05T17:02:17.588Z,101646.44
2022-11-05T17:04:44.222Z,101646.78
2022-11-05T17:07:10.724Z,101660.16
2022-11-05T17:09:37.415Z,101660.84
2022-11-05T17:12:04.359Z,101659.16
2022-11-05T17:14:30.885Z,101651.88
2022-11-05T17:17:01.113Z,101666.59
2022-11-05T17:19:28.034Z,101666.09
2022-11-05T17:21:54.821Z,101661.16
2022-11-05T17:24:21.406Z,101678.84
2022-11-05T17:26:48.056Z,101679.19
2022-11-05T17:29:14.964Z,101687.16
2022-11-05T17:31:42.304Z,101705.00
2022-11-05T17:34:09.797Z,101696.09
2022-11-05T17:36:36.596Z,101694.72
2022-11-05T17:39:03.362Z,101703.50
2022-11-05T17:41:29.930Z,101706.84
2022-11-05T17:43:57.884Z,101715.41
2022-11-05T17:46:25.258Z,101713.44
2022-11-05T17:48:51.843Z,101709.13
2022-11-05T17:51:19.827Z,101719.91
2022-11-05T17:53:48.466Z,101704.00
2022-11-05T17:56:28.787Z,101717.91
2022-11-05T17:59:00.212Z,101719.06
2022-11-05T18:01:32.541Z,101725.69
2022-11-05T18:04:03.847Z,101726.50
2022-11-05T18:06:34.759Z,101730.00
2022-11-05T18:09:01.415Z,101731.97
2022-11-05T18:11:27.925Z,101721.19
2022-11-05T18:13:54.452Z,101718.72
2022-11-05T18:16:20.969Z,101715.28
2022-11-05T18:18:49.308Z,101728.16
2022-11-05T18:21:16.208Z,101715.59
2022-11-05T18:23:42.786Z,101705.81
2022-11-05T18:26:11.068Z,101710.75
2022-11-05T18:28:38.262Z,101705.28
2022-11-05T18:31:08.359Z,101689.72
2022-11-05T18:33:34.998Z,101669.53
2022-11-05T18:36:01.514Z,101647.84
2022-11-05T18:38:28.079Z,101637.41
2022-11-05T18:40:54.665Z,101622.22
2022-11-05T18:43:21.252Z,101621.88
2022-11-05T18:46:07.800Z,101635.63
2022-11-05T18:48:35.589Z,101630.50
2022-11-05T18:51:10.929Z,101629.03
2022-11-05T18:53:38.390Z,101619.94
2022-11-05T18:56:14.055Z,101627.72
2022-11-05T18:58:40.807Z,101628.06
2022-11-05T19:01:28.365Z,101642.94
2022-11-05T19:03:57.174Z,101643.13
2022-11-05T19:06:25.527Z,101636.34
2022-11-05T19:08:52.538Z,101640.16
2022-11-05T19:11:22.384Z,101629.25
2022-11-05T19:13:49.308Z,101623.75
2022-11-05T19:16:20.038Z,101625.13
2022-11-05T19:18:47.887Z,101619.66
2022-11-05T19:21:21.705Z,101616.84
2022-11-05T19:23:49.075Z,101613.34
2022-11-05T19:26:28.379Z,101611.34
2022-11-05T19:28:57.857Z,101618.16
2022-11-05T19:31:24.416Z,101615.34
2022-11-05T19:33:52.033Z,101625.63
2022-11-05T19:36:20.680Z,101616.84
2022-11-05T19:38:49.666Z,101616.31
2022-11-05T19:41:18.404Z,101620.63
2022-11-05T19:43:45.740Z,101616.81
2022-11-05T19:46:15.949Z,101628.75
2022-11-05T19:48:43.773Z,101610.19
2022-11-05T19:51:14.302Z,101624.41
2022-11-05T19:53:41.749Z,101628.41
2022-11-05T19:56:20.659Z,101617.81
2022-11-05T19:58:47.786Z,101618.16
2022-11-05T20:01:15.354Z,101612.69
2022-11-05T20:03:42.222Z,101618.28
2022-11-05T20:06:11.911Z,101610.84
2022-11-05T20:08:59.755Z,101612.66
2022-11-05T20:11:27.100Z,101609.66
2022-11-05T20:13:53.858Z,101600.38
2022-11-05T20:16:26.156Z,101592.78
2022-11-05T20:18:53.061Z,101592.78
2022-11-05T20:21:20.211Z,101597.75
2022-11-05T20:23:47.627Z,101592.25
2022-11-05T20:26:15.475Z,101592.44
2022-11-05T20:28:43.742Z,101588.91
2022-11-05T20:31:15.226Z,101593.25
2022-11-05T20:33:42.809Z,101594.38
2022-11-05T20:36:13.577Z,101602.03
2022-11-05T20:38:40.362Z,101596.91
2022-11-05T20:41:09.221Z,101607.97
2022-11-05T20:43:36.924Z,101608.31
2022-11-05T20:46:04.350Z,101590.75
2022-11-05T20:48:33.710Z,101598.53
2022-11-05T20:51:04.227Z,101595.09
2022-11-05T20:53:31.207Z,101601.84
2022-11-05T20:55:57.819Z,101601.03
2022-11-05T20:58:25.269Z,101605.53
2022-11-05T21:00:54.625Z,101603.72
2022-11-05T21:03:21.617Z,101609.03
2022-11-05T21:05:50.300Z,101604.53
2022-11-05T21:08:16.990Z,101602.06
2022-11-05T21:10:50.001Z,101596.59
2022-11-05T21:13:18.290Z,101603.84
2022-11-05T21:15:53.884Z,101589.63
2022-11-05T21:18:22.681Z,101582.34
2022-11-05T21:20:50.346Z,101576.03
2022-11-05T21:23:17.691Z,101571.38
2022-11-05T21:25:44.946Z,101575.84
2022-11-05T21:28:12.755Z,101578.50
2022-11-05T21:30:41.949Z,101584.97
2022-11-05T21:33:09.352Z,101588.63
2022-11-05T21:35:40.599Z,101598.91
2022-11-05T21:38:08.252Z,101599.09
2022-11-05T21:40:34.802Z,101593.63
2022-11-05T21:43:01.412Z,101591.59
2022-11-05T21:45:28.150Z,101597.38
2022-11-05T21:47:55.251Z,101605.66
2022-11-05T21:50:44.776Z,101593.06
2022-11-05T21:53:34.544Z,101587.59
2022-11-05T21:56:24.039Z,101593.56
2022-11-05T21:59:10.318Z,101592.06
2022-11-05T22:01:36.979Z,101595.38
2022-11-05T22:04:03.584Z,101596.84
2022-11-05T22:06:33.424Z,101597.13
2022-11-05T22:09:00.058Z,101581.59
2022-11-05T22:11:26.607Z,101581.94
2022-11-05T22:13:56.078Z,101586.75
2022-11-05T22:16:22.620Z,101571.88
2022-11-05T22:18:49.096Z,101580.94
2022-11-05T22:21:18.003Z,101581.72
2022-11-05T22:23:44.743Z,101573.28
2022-11-05T22:26:11.327Z,101564.03
2022-11-05T22:28:37.825Z,101549.94
2022-11-05T22:31:04.418Z,101545.13
2022-11-05T22:33:31.433Z,101537.03
2022-11-05T22:35:57.946Z,101537.22
2022-11-05T22:38:24.492Z,101540.88
2022-11-05T22:40:51.019Z,101531.59
2022-11-05T22:43:17.591Z,101535.09
2022-11-05T22:45:44.105Z,101516.38
2022-11-05T22:48:10.941Z,101521.38
2022-11-05T22:50:38.202Z,101528.66
2022-11-05T22:53:04.714Z,101529.50
2022-11-05T22:55:31.275Z,101532.44
2022-11-05T22:57:57.786Z,101534.44
2022-11-05T23:00:35.934Z,101544.19
2022-11-05T23:03:03.019Z,101535.28
2022-11-05T23:05:29.716Z,101525.78
2022-11-05T23:08:15.250Z,101525.09
2022-11-05T23:11:00.565Z,101525.91
2022-11-05T23:13:30.094Z,101523.25
2022-11-05T23:16:16.685Z,101524.44
2022-11-05T23:19:01.877Z,101513.84
2022-11-05T23:21:46.813Z,101527.75
2022-11-05T23:24:13.466Z,101522.47
2022-11-05T23:26:52.257Z,101511.03
2022-11-05T23:29:23.169Z,101522.09
2022-11-05T23:32:14.511Z,101518.91
2022-11-05T23:34:40.996Z,101514.63
2022-11-05T23:37:26.419Z,101510.63
2022-11-05T23:39:52.926Z,101507.16
2022-11-05T23:42:38.288Z,101507.16
2022-11-05T23:45:24.168Z,101504.34
2022-11-05T23:48:09.309Z,101496.38
2022-11-05T23:50:39.723Z,101492.59
2022-11-05T23:53:07.620Z,101498.72
2022-11-05T23:55:34.510Z,101500.53
2022-11-05T23:58:01.331Z,101497.53
